createdAt,value
2023-04-18T00:03:45.790Z,8.30
2023-04-18T00:08:48.024Z,8.40
2023-04-18T00:13:49.739Z,8.30
2023-04-18T00:18:53.031Z,8.30
2023-04-18T00:23:54.788Z,8.30
2023-04-18T00:28:56.594Z,8.20
2023-04-18T00:33:58.292Z,8.20
2023-04-18T00:39:00.109Z,8.20
2023-04-18T00:44:01.846Z,8.30
2023-04-18T00:49:03.781Z,8.30
2023-04-18T00:54:07.831Z,8.20
2023-04-18T00:59:10.537Z,8.20
2023-04-18T01:04:12.687Z,8.30
2023-04-18T01:09:15.390Z,8.20
2023-04-18T01:14:20.306Z,8.30
2023-04-18T01:19:23.151Z,8.40
2023-04-18T01:24:26.760Z,8.50
2023-04-18T01:29:28.753Z,8.60
2023-04-18T01:34:30.589Z,8.50
2023-04-18T01:39:32.270Z,8.50
2023-04-18T01:44:34.047Z,8.60
2023-04-18T01:49:35.764Z,8.70
2023-04-18T01:54:37.409Z,8.60
2023-04-18T01:59:39.078Z,8.70
2023-04-18T02:04:40.833Z,8.70
2023-04-18T02:09:42.513Z,8.60
2023-04-18T02:14:44.239Z,8.70
2023-04-18T02:19:46.623Z,8.70
2023-04-18T02:24:48.295Z,8.60
2023-04-18T02:29:49.939Z,8.70
2023-04-18T02:34:51.778Z,8.80
2023-04-18T02:39:53.939Z,8.80
2023-04-18T02:44:55.655Z,8.70
2023-04-18T02:49:57.373Z,8.80
2023-04-18T02:54:59.078Z,8.80
2023-04-18T03:00:00.844Z,8.60
2023-04-18T03:05:02.805Z,8.60
2023-04-18T03:10:05.331Z,8.70
2023-04-18T03:15:07.648Z,8.70
2023-04-18T03:20:10.422Z,8.70
2023-04-18T03:25:12.112Z,8.70
2023-04-18T03:30:14.045Z,8.70
2023-04-18T03:35:15.961Z,8.60
2023-04-18T03:40:18.983Z,8.60
2023-04-18T03:45:20.766Z,8.60
2023-04-18T03:50:24.252Z,8.50
2023-04-18T03:55:26.521Z,8.50
2023-04-18T04:00:28.359Z,8.50
2023-04-18T04:05:30.414Z,8.50
2023-04-18T04:10:32.097Z,8.60
2023-04-18T04:15:33.827Z,8.40
2023-04-18T04:20:35.522Z,8.30
2023-04-18T04:25:38.651Z,8.40
2023-04-18T04:30:41.638Z,8.30
2023-04-18T04:35:43.659Z,8.20
2023-04-18T04:40:46.114Z,8.50
2023-04-18T04:45:52.969Z,8.50
2023-04-18T04:50:57.811Z,8.40
2023-04-18T04:55:59.593Z,8.50
2023-04-18T05:01:01.454Z,8.50
2023-04-18T05:06:03.619Z,8.40
2023-04-18T05:11:05.499Z,8.30
2023-04-18T05:16:07.658Z,8.40
2023-04-18T05:21:09.433Z,8.40
2023-04-18T05:26:11.144Z,8.30
2023-04-18T05:31:13.348Z,8.30
2023-04-18T05:36:15.087Z,8.20
2023-04-18T05:41:16.798Z,8.40
2023-04-18T05:46:18.500Z,8.30
2023-04-18T05:51:20.273Z,8.60
2023-04-18T05:56:22.153Z,8.90
2023-04-18T06:01:24.072Z,8.70
2023-04-18T06:06:26.322Z,8.60
2023-04-18T06:11:28.313Z,8.70
2023-04-18T06:16:30.190Z,8.80
2023-04-18T06:21:32.111Z,8.60
2023-04-18T06:26:33.882Z,8.60
2023-04-18T06:31:35.806Z,8.80
2023-04-18T06:36:37.557Z,8.70
2023-04-18T06:41:39.389Z,8.70
2023-04-18T06:46:42.213Z,8.80
2023-04-18T06:51:44.025Z,8.90
2023-04-18T06:56:45.899Z,8.90
2023-04-18T07:01:48.013Z,9.40
2023-04-18T07:06:49.864Z,9.60
2023-04-18T07:11:52.571Z,9.20
2023-04-18T07:16:54.413Z,9.10
2023-04-18T07:21:56.379Z,9.30
2023-04-18T07:26:58.128Z,9.40
2023-04-18T07:31:59.970Z,9.00
2023-04-18T07:37:01.731Z,8.90
2023-04-18T07:42:04.549Z,9.00
2023-04-18T07:47:11.090Z,9.20
2023-04-18T07:52:12.901Z,9.50
2023-04-18T07:57:14.629Z,9.80
2023-04-18T08:02:16.475Z,10.00
2023-04-18T08:07:18.300Z,10.00
2023-04-18T08:12:20.151Z,10.30
2023-04-18T08:17:23.031Z,10.20
2023-04-18T08:22:24.772Z,10.20
2023-04-18T08:27:26.608Z,10.30
2023-04-18T08:32:28.608Z,10.30
2023-04-18T08:37:31.059Z,10.40
2023-04-18T08:42:33.460Z,10.50
2023-04-18T08:47:35.876Z,10.40
2023-04-18T08:52:41.389Z,10.60
2023-04-18T08:57:43.708Z,10.40
2023-04-18T09:02:47.136Z,10.10
2023-04-18T09:07:50.743Z,10.50
2023-04-18T09:12:52.520Z,10.80
2023-04-18T09:17:57.771Z,10.80
2023-04-18T09:23:00.739Z,11.00
2023-04-18T09:28:04.645Z,11.20
2023-04-18T09:33:10.156Z,11.50
2023-04-18T09:38:11.933Z,11.10
2023-04-18T09:43:20.470Z,11.30
2023-04-18T09:48:22.167Z,10.90
2023-04-18T09:53:24.860Z,10.90
2023-04-18T09:58:30.726Z,11.00
2023-04-18T10:03:38.783Z,11.20
2023-04-18T10:08:40.906Z,11.60
2023-04-18T10:13:44.625Z,11.80
2023-04-18T10:18:46.425Z,11.70
2023-04-18T10:23:49.248Z,11.80
2023-04-18T10:28:59.006Z,11.40
2023-04-18T10:34:05.091Z,12.10
2023-04-18T10:39:29.983Z,11.60
2023-04-18T10:44:31.765Z,11.70
2023-04-18T10:49:36.019Z,11.60
2023-04-18T10:55:18.574Z,11.80
2023-04-18T11:00:22.796Z,12.30
2023-04-18T11:05:29.072Z,12.30
2023-04-18T11:10:31.888Z,12.50
2023-04-18T11:15:36.724Z,12.80
2023-04-18T11:20:40.017Z,12.70
2023-04-18T11:25:44.996Z,12.90
2023-04-18T11:30:47.032Z,13.10
2023-04-18T11:35:48.819Z,13.10
2023-04-18T11:40:51.258Z,13.60
2023-04-18T11:45:57.902Z,12.90
2023-04-18T11:50:59.781Z,13.30
2023-04-18T11:56:03.485Z,13.40
2023-04-18T12:01:22.107Z,13.20
2023-04-18T12:06:24.026Z,13.40
2023-04-18T12:11:26.191Z,13.20
2023-04-18T12:16:28.363Z,12.90
2023-04-18T12:21:33.011Z,13.20
2023-04-18T12:26:34.748Z,13.50
2023-04-18T12:31:36.680Z,13.30
2023-04-18T12:36:38.445Z,12.80
2023-04-18T12:41:40.628Z,12.90
2023-04-18T12:46:42.352Z,12.80
2023-04-18T12:51:44.126Z,12.60
2023-04-18T12:56:46.398Z,12.80
2023-04-18T13:01:48.159Z,12.50
2023-04-18T13:06:49.973Z,12.30
2023-04-18T13:11:52.271Z,12.30
2023-04-18T13:16:54.134Z,12.30
2023-04-18T13:21:57.818Z,12.40
2023-04-18T13:27:01.650Z,12.20
2023-04-18T13:32:04.288Z,12.20
2023-04-18T13:37:06.552Z,12.20
2023-04-18T13:42:10.213Z,12.10
2023-04-18T13:47:12.053Z,11.90
2023-04-18T13:52:13.856Z,11.90
2023-04-18T13:57:15.849Z,12.10
2023-04-18T14:02:17.989Z,12.10
2023-04-18T14:07:20.145Z,11.90
2023-04-18T14:12:22.638Z,11.80
2023-04-18T14:17:24.457Z,11.80
2023-04-18T14:22:26.908Z,11.50
2023-04-18T14:27:28.831Z,11.50
2023-04-18T14:32:30.655Z,11.50
2023-04-18T14:37:32.497Z,11.70
2023-04-18T14:42:34.219Z,11.40
2023-04-18T14:47:36.781Z,11.40
2023-04-18T14:52:39.410Z,11.10
2023-04-18T14:57:41.144Z,11.20
2023-04-18T15:02:43.042Z,11.20
2023-04-18T15:07:45.148Z,10.90
2023-04-18T15:12:46.845Z,11.00
2023-04-18T15:17:48.572Z,11.30
2023-04-18T15:22:50.730Z,11.10
2023-04-18T15:27:52.693Z,11.10
2023-04-18T15:32:54.407Z,11.30
2023-04-18T15:37:57.655Z,11.10
2023-04-18T15:42:59.715Z,11.10
2023-04-18T15:48:02.228Z,11.20
2023-04-18T15:53:03.932Z,11.30
2023-04-18T15:58:06.611Z,11.40
2023-04-18T16:03:10.463Z,11.30
2023-04-18T16:08:12.238Z,11.00
2023-04-18T16:13:14.031Z,10.90
2023-04-18T16:18:15.783Z,10.90
2023-04-18T16:23:17.669Z,11.00
2023-04-18T16:28:20.463Z,11.10
2023-04-18T16:33:25.717Z,11.00
2023-04-18T16:38:27.760Z,11.00
2023-04-18T16:43:36.307Z,11.00
2023-04-18T16:48:38.738Z,11.10
2023-04-18T16:53:40.504Z,11.00
2023-04-18T16:58:42.226Z,11.10
2023-04-18T17:03:44.644Z,11.00
2023-04-18T17:08:46.810Z,11.20
2023-04-18T17:13:50.982Z,11.10
2023-04-18T17:18:52.712Z,11.10
2023-04-18T17:23:55.155Z,11.30
2023-04-18T17:28:56.911Z,11.30
2023-04-18T17:33:59.050Z,11.30
2023-04-18T17:39:06.399Z,11.20
2023-04-18T17:44:10.173Z,11.20
2023-04-18T17:49:12.028Z,11.10
2023-04-18T17:54:13.977Z,11.10
2023-04-18T17:59:16.472Z,11.10
2023-04-18T18:04:19.688Z,11.20
2023-04-18T18:09:21.594Z,11.20
2023-04-18T18:14:23.441Z,11.20
2023-04-18T18:19:25.097Z,11.20
2023-04-18T18:24:27.060Z,11.20
2023-04-18T18:29:28.827Z,11.20
2023-04-18T18:34:31.984Z,11.10
2023-04-18T18:39:34.203Z,11.10
2023-04-18T18:44:35.942Z,11.00
2023-04-18T18:49:37.636Z,11.20
2023-04-18T18:54:39.400Z,11.20
2023-04-18T18:59:41.573Z,11.10
2023-04-18T19:04:43.979Z,11.20
2023-04-18T19:09:47.290Z,11.20
2023-04-18T19:14:50.517Z,11.20
2023-04-18T19:19:53.288Z,11.10
2023-04-18T19:24:55.071Z,11.10
2023-04-18T19:29:57.280Z,11.20
2023-04-18T19:34:59.597Z,11.10
2023-04-18T19:40:02.612Z,11.20
2023-04-18T19:45:05.671Z,11.20
2023-04-18T19:50:14.648Z,11.20
2023-04-18T19:55:16.567Z,11.10
2023-04-18T20:00:19.938Z,11.10
2023-04-18T20:05:21.958Z,11.10
2023-04-18T20:10:23.864Z,11.10
2023-04-18T20:15:25.616Z,11.20
2023-04-18T20:20:29.627Z,11.10
2023-04-18T20:25:33.683Z,11.10
2023-04-18T20:30:36.935Z,11.10
2023-04-18T20:35:38.962Z,11.10
2023-04-18T20:40:45.079Z,11.00
2023-04-18T20:45:51.123Z,11.00
2023-04-18T20:50:57.477Z,11.00
2023-04-18T20:56:02.917Z,11.00
2023-04-18T21:01:04.882Z,11.00
2023-04-18T21:06:06.635Z,11.00
2023-04-18T21:11:08.452Z,11.10
2023-04-18T21:16:10.823Z,11.10
2023-04-18T21:21:12.618Z,11.20
2023-04-18T21:26:14.384Z,11.10
2023-04-18T21:31:16.187Z,11.10
2023-04-18T21:36:17.945Z,11.10
2023-04-18T21:41:20.786Z,11.10
2023-04-18T21:46:22.633Z,11.10
2023-04-18T21:51:24.498Z,11.10
2023-04-18T21:56:26.761Z,11.00
2023-04-18T22:01:28.630Z,11.00
2023-04-18T22:06:32.325Z,11.00
2023-04-18T22:11:34.095Z,10.90
2023-04-18T22:16:35.995Z,10.90
2023-04-18T22:21:37.898Z,10.80
2023-04-18T22:26:40.797Z,10.80
2023-04-18T22:31:43.806Z,10.80
2023-04-18T22:36:45.529Z,10.70
2023-04-18T22:41:47.197Z,10.70
2023-04-18T22:46:49.491Z,10.60
2023-04-18T22:51:54.253Z,10.60
2023-04-18T22:56:58.317Z,10.60
2023-04-18T23:02:00.469Z,10.60
2023-04-18T23:07:02.681Z,10.50
2023-04-18T23:12:04.708Z,10.50
2023-04-18T23:17:06.380Z,10.40
2023-04-18T23:22:08.062Z,10.40
2023-04-18T23:27:09.743Z,10.30
2023-04-18T23:32:11.435Z,10.30
2023-04-18T23:37:13.160Z,10.20
2023-04-18T23:42:14.811Z,10.20
2023-04-18T23:47:16.542Z,10.30
2023-04-18T23:52:18.416Z,10.10
2023-04-18T23:57:20.113Z,10.00
